createdAt,value
2018-09-25T04:22:47.664Z,0
2018-09-25T04:25:28.200Z,0
2018-09-25T04:29:50.553Z,0
2018-09-25T04:35:12.749Z,0
2018-09-25T04:36:11.998Z,0
2018-09-25T04:41:37.339Z,0
2018-09-25T05:12:39.686Z,0
2018-09-25T05:13:38.970Z,0
2018-09-25T05:16:23.274Z,5
2018-09-25T05:17:22.011Z,5
2018-09-25T05:21:44.099Z,5
2018-09-25T05:27:48.512Z,10
2018-09-25T05:30:32.937Z,10
2018-09-25T05:35:00.380Z,15
2018-09-25T05:40:22.803Z,20
2018-09-25T05:47:29.363Z,25
2018-09-25T05:50:11.090Z,25
2018-09-25T05:51:09.693Z,25
2018-09-25T06:32:24.453Z,45
2018-09-25T06:33:23.228Z,50
2018-09-25T06:34:21.799Z,50
2018-09-25T06:35:20.348Z,50
2018-09-25T06:36:19.176Z,50
2018-09-25T06:37:18.023Z,50
2018-09-25T06:38:17.216Z,50
2018-09-25T06:39:15.656Z,50
2018-09-25T06:40:14.552Z,50
2018-09-25T06:41:13.389Z,50
2018-09-25T06:42:12.080Z,50
2018-09-25T06:43:11.154Z,50
2018-09-25T06:44:10.553Z,55
2018-09-25T06:45:09.346Z,60
2018-09-25T06:46:08.491Z,70
2018-09-25T06:47:07.914Z,80
2018-09-25T06:48:06.921Z,85
2018-09-25T06:49:06.028Z,90
2018-09-25T06:50:04.364Z,90
2018-09-25T06:51:04.030Z,90
2018-09-25T06:52:03.473Z,90
2018-09-25T06:53:02.341Z,90
2018-09-25T06:54:00.950Z,90
2018-09-25T06:54:59.600Z,90
2018-09-25T06:55:58.575Z,90
2018-09-25T06:56:57.391Z,90
2018-09-25T06:57:56.015Z,90
2018-09-25T06:58:55.673Z,90
2018-09-25T06:59:54.660Z,90
2018-09-25T07:00:53.460Z,90
2018-09-25T07:01:52.104Z,90
2018-09-25T07:02:50.573Z,90
2018-09-25T07:03:49.278Z,90
2018-09-25T07:04:47.919Z,90
2018-09-25T07:05:46.799Z,85
2018-09-25T07:06:45.682Z,85
2018-09-25T07:07:44.530Z,85
2018-09-25T07:08:44.319Z,85
2018-09-25T07:09:46.259Z,85
2018-09-25T07:10:45.543Z,85
2018-09-25T07:11:44.153Z,85
2018-09-25T07:12:44.809Z,85
2018-09-25T07:13:44.151Z,85
2018-09-25T07:14:45.401Z,80
2018-09-25T07:15:45.104Z,80
2018-09-25T07:16:43.706Z,80
2018-09-25T07:17:43.069Z,80
2018-09-25T07:18:42.701Z,80
2018-09-25T07:19:41.574Z,80
2018-09-25T07:20:40.555Z,80
2018-09-25T07:21:39.472Z,75
2018-09-25T07:22:38.116Z,75
2018-09-25T07:23:37.564Z,70
2018-09-25T07:24:38.542Z,70
2018-09-25T07:25:39.342Z,70
2018-09-25T07:26:38.705Z,70
2018-09-25T07:27:37.894Z,70
2018-09-25T07:28:36.713Z,70
2018-09-25T07:29:35.773Z,70
2018-09-25T07:30:34.606Z,70
2018-09-25T07:31:33.267Z,70
2018-09-25T07:32:34.040Z,70
2018-09-25T07:33:32.883Z,70
2018-09-25T07:34:31.627Z,70
2018-09-25T07:35:32.670Z,70
2018-09-25T07:36:31.672Z,70
2018-09-25T07:37:31.054Z,70
2018-09-25T07:38:29.216Z,70
2018-09-25T07:39:28.471Z,70
2018-09-25T07:40:28.487Z,70
2018-09-25T07:41:27.477Z,70
2018-09-25T07:42:32.032Z,70
2018-09-25T07:43:30.816Z,70
2018-09-25T07:44:29.655Z,70
2018-09-25T07:45:28.640Z,70
2018-09-25T07:46:27.442Z,70
2018-09-25T07:47:28.424Z,70
2018-09-25T07:48:27.327Z,70
2018-09-25T07:49:27.774Z,70
2018-09-25T07:50:26.379Z,70
2018-09-25T07:51:25.180Z,70
2018-09-25T07:52:26.775Z,70
2018-09-25T07:53:25.519Z,70
2018-09-25T07:54:24.241Z,70
2018-09-25T07:55:22.816Z,70
2018-09-25T07:56:21.620Z,70
2018-09-25T07:57:20.321Z,70
2018-09-25T07:58:18.917Z,70
2018-09-25T07:59:17.688Z,70
2018-09-25T08:00:16.635Z,70
2018-09-25T08:01:15.618Z,70
2018-09-25T08:02:16.428Z,70
2018-09-25T08:03:15.715Z,70
2018-09-25T08:04:14.238Z,70
2018-09-25T08:05:14.981Z,70
2018-09-25T08:06:14.048Z,70
2018-09-25T08:07:12.722Z,70
2018-09-25T08:08:11.345Z,70
2018-09-25T08:09:10.022Z,70
2018-09-25T08:10:08.570Z,70
2018-09-25T08:11:07.347Z,70
2018-09-25T08:24:51.376Z,65
2018-09-25T08:25:50.814Z,65
2018-09-25T08:26:49.816Z,65
2018-09-25T08:28:04.203Z,65
2018-09-25T08:30:47.010Z,65
2018-09-25T08:32:47.899Z,65
2018-09-25T08:34:42.261Z,65
2018-09-25T08:35:58.257Z,65
2018-09-25T08:36:57.642Z,65
2018-09-25T08:37:56.735Z,65
2018-09-25T08:39:02.634Z,65
2018-09-25T08:40:03.010Z,65
2018-09-25T08:41:07.118Z,65
2018-09-25T08:42:06.487Z,65
2018-09-25T08:43:05.700Z,65
2018-09-25T08:44:04.784Z,65
2018-09-25T08:45:03.960Z,65
2018-09-25T08:47:20.055Z,65
2018-09-25T08:48:22.411Z,65
2018-09-25T08:51:31.072Z,65
2018-09-25T08:53:11.384Z,65
2018-09-25T08:55:51.985Z,65
2018-09-25T08:57:00.701Z,65
2018-09-25T09:00:32.265Z,65
2018-09-25T09:01:39.630Z,65
2018-09-25T09:02:34.471Z,65
2018-09-25T09:03:33.517Z,65
2018-09-25T09:04:32.346Z,65
2018-09-25T09:05:34.290Z,65
2018-09-25T09:09:51.155Z,65
2018-09-25T09:12:30.067Z,65
2018-09-25T09:13:28.953Z,65
2018-09-25T09:14:29.660Z,65
2018-09-25T09:15:34.866Z,65
2018-09-25T09:16:34.575Z,65
2018-09-25T09:19:27.024Z,65
2018-09-25T09:20:25.580Z,65
2018-09-25T09:21:24.792Z,60
2018-09-25T09:22:23.683Z,65
2018-09-25T09:23:23.848Z,65
2018-09-25T09:24:27.577Z,65
2018-09-25T09:28:21.655Z,65
2018-09-25T09:33:13.929Z,65
2018-09-25T09:34:12.678Z,65
2018-09-25T09:35:12.401Z,65
2018-09-25T09:41:18.470Z,65
2018-09-25T09:42:22.685Z,65
2018-09-25T09:56:03.806Z,65
2018-09-25T09:57:02.429Z,65
2018-09-25T09:59:24.519Z,65
2018-09-25T10:00:24.125Z,65
2018-09-25T10:01:22.926Z,65
2018-09-25T10:02:21.681Z,65
2018-09-25T10:03:20.879Z,65
2018-09-25T10:04:18.984Z,65
2018-09-25T10:05:18.206Z,65
2018-09-25T10:06:16.998Z,65
2018-09-25T10:07:16.346Z,65
2018-09-25T10:08:14.951Z,65
2018-09-25T10:09:13.629Z,65
2018-09-25T10:10:12.555Z,65
2018-09-25T10:11:11.699Z,65
2018-09-25T10:12:10.614Z,65
2018-09-25T10:13:10.190Z,65
2018-09-25T10:14:08.907Z,65
2018-09-25T10:15:07.475Z,70
2018-09-25T10:16:06.129Z,65
2018-09-25T10:19:27.650Z,65
2018-09-25T10:20:26.696Z,65
2018-09-25T10:25:30.754Z,65
2018-09-25T10:26:29.765Z,65
2018-09-25T10:27:29.449Z,65
2018-09-25T10:28:28.177Z,65
2018-09-25T10:29:27.132Z,65
2018-09-25T10:30:26.601Z,65
2018-09-25T10:31:26.153Z,65
2018-09-25T10:32:24.327Z,65
2018-09-25T10:33:23.166Z,65
2018-09-25T10:34:21.848Z,65
2018-09-25T10:35:21.664Z,65
2018-09-25T10:36:20.320Z,65
2018-09-25T10:39:00.777Z,65
2018-09-25T10:39:59.345Z,65
2018-09-25T10:40:58.675Z,65
2018-09-25T10:41:57.043Z,65
2018-09-25T10:42:56.067Z,65
2018-09-25T10:43:55.215Z,65
2018-09-25T10:44:54.101Z,65
2018-09-25T10:45:53.538Z,65
2018-09-25T10:48:33.987Z,65
2018-09-25T10:49:33.134Z,65
2018-09-25T10:50:32.541Z,65
2018-09-25T10:51:31.221Z,65
2018-09-25T10:52:30.448Z,65
2018-09-25T10:55:10.927Z,65
2018-09-25T10:56:10.054Z,65
2018-09-25T10:57:08.687Z,65
2018-09-25T10:58:07.322Z,65
2018-09-25T10:59:06.178Z,65
2018-09-25T11:00:04.871Z,65
2018-09-25T11:01:03.534Z,65
2018-09-25T11:02:02.182Z,65
2018-09-25T11:04:42.510Z,65
2018-09-25T11:15:34.540Z,70
2018-09-25T11:16:33.751Z,70
2018-09-25T11:17:33.273Z,70
2018-09-25T11:20:13.600Z,70
2018-09-25T11:21:12.793Z,70
2018-09-25T11:22:12.503Z,70
2018-09-25T11:27:33.932Z,70
2018-09-25T11:28:33.266Z,70
2018-09-25T11:29:33.359Z,70
2018-09-25T11:30:32.212Z,70
2018-09-25T11:33:12.573Z,70
2018-09-25T11:34:12.804Z,70
2018-09-25T11:36:54.175Z,70
2018-09-25T11:37:53.857Z,70
2018-09-25T11:38:53.640Z,70
2018-09-25T11:43:59.566Z,70
2018-09-25T11:45:00.151Z,70
2018-09-25T11:45:59.782Z,70
2018-09-25T11:46:59.743Z,70
2018-09-25T11:49:39.742Z,70
2018-09-25T11:50:39.455Z,70
2018-09-25T11:52:38.292Z,70
2018-09-25T12:12:20.681Z,70
2018-09-25T12:13:19.933Z,70
2018-09-25T12:14:18.729Z,70
2018-09-25T12:16:59.328Z,70
2018-09-25T12:17:58.887Z,70
2018-09-25T12:18:58.051Z,70
2018-09-25T12:19:56.778Z,70
2018-09-25T12:20:57.908Z,70
2018-09-25T12:22:06.885Z,70
2018-09-25T15:27:48.611Z,60
2018-09-25T15:28:47.308Z,60
2018-09-25T15:29:46.121Z,60
2018-09-25T15:30:44.726Z,60
2018-09-25T15:31:43.812Z,60
2018-09-25T15:32:42.625Z,55
2018-09-25T15:33:41.298Z,55
2018-09-25T15:34:40.167Z,55
2018-09-25T15:35:38.937Z,55
2018-09-25T15:36:37.807Z,55
2018-09-25T15:37:36.820Z,55
2018-09-25T15:38:35.470Z,55
2018-09-25T15:39:34.870Z,55
2018-09-25T15:40:33.655Z,55
2018-09-25T15:41:32.286Z,55
2018-09-25T15:42:30.884Z,55
2018-09-25T15:43:29.718Z,55
2018-09-25T15:44:28.395Z,55
2018-09-25T15:47:50.273Z,50
2018-09-25T15:48:49.361Z,55
2018-09-25T15:49:48.256Z,55
2018-09-25T15:50:46.941Z,55
2018-09-25T15:51:45.740Z,55
2018-09-25T15:54:26.779Z,55
2018-09-25T15:55:25.500Z,50
2018-09-25T15:56:24.838Z,50
2018-09-25T15:57:23.409Z,50
2018-09-25T15:58:22.432Z,50
2018-09-25T15:59:21.301Z,50
2018-09-25T16:00:20.279Z,50
2018-09-25T16:01:19.183Z,50
2018-09-25T16:02:18.220Z,50
2018-09-25T16:03:16.849Z,50
2018-09-25T16:04:15.771Z,50
2018-09-25T16:05:15.204Z,45
2018-09-25T16:07:56.069Z,45
2018-09-25T16:08:54.962Z,45
2018-09-25T16:09:54.183Z,45
2018-09-25T16:10:52.925Z,45
2018-09-25T16:11:51.910Z,45
2018-09-25T16:12:51.072Z,45
2018-09-25T16:13:49.928Z,45
2018-09-25T16:14:48.892Z,45
2018-09-25T16:15:47.828Z,40
2018-09-25T16:16:47.389Z,40
2018-09-25T16:17:46.412Z,40
2018-09-25T16:18:45.072Z,40
2018-09-25T16:19:44.153Z,40
2018-09-25T16:20:42.863Z,40
2018-09-25T16:21:41.406Z,40
2018-09-25T16:22:39.981Z,40
2018-09-25T16:23:38.883Z,40
2018-09-25T16:24:38.130Z,40
2018-09-25T16:25:38.028Z,35
2018-09-25T16:26:36.693Z,35
2018-09-25T16:27:35.520Z,35
2018-09-25T16:28:34.216Z,35
2018-09-25T16:29:32.804Z,35
2018-09-25T16:30:31.704Z,35
2018-09-25T16:31:30.266Z,35
2018-09-25T16:34:10.783Z,30
2018-09-25T16:35:09.872Z,30
2018-09-25T16:36:08.470Z,30
2018-09-25T16:37:07.009Z,30
2018-09-25T16:38:05.900Z,30
2018-09-25T16:39:04.636Z,30
2018-09-25T16:40:04.014Z,30
2018-09-25T16:41:02.788Z,25
2018-09-25T16:42:01.697Z,25
2018-09-25T16:43:00.696Z,25
2018-09-25T16:43:59.210Z,25
2018-09-25T16:44:57.820Z,25
2018-09-25T16:45:56.874Z,25
2018-09-25T16:46:55.751Z,25
2018-09-25T16:47:54.623Z,20
2018-09-25T16:48:53.251Z,20
2018-09-25T16:49:51.964Z,20
2018-09-25T16:50:50.723Z,20
2018-09-25T16:51:49.393Z,20
2018-09-25T16:52:48.271Z,20
2018-09-25T16:53:46.740Z,20
2018-09-25T16:54:45.700Z,20
2018-09-25T16:57:26.097Z,15
2018-09-25T16:58:24.778Z,15
2018-09-25T16:59:24.263Z,15
2018-09-25T17:00:22.968Z,15
2018-09-25T17:01:21.726Z,15
2018-09-25T17:02:20.448Z,10
2018-09-25T17:03:19.526Z,10
2018-09-25T17:04:18.221Z,10
2018-09-25T17:05:17.054Z,10
2018-09-25T17:06:15.646Z,10
2018-09-25T17:07:15.547Z,10
2018-09-25T17:08:15.018Z,5
2018-09-25T17:09:14.096Z,5
2018-09-25T17:10:12.913Z,5
2018-09-25T17:11:11.719Z,5
2018-09-25T17:12:10.347Z,5
2018-09-25T17:13:09.202Z,5
2018-09-25T17:14:08.029Z,5
2018-09-25T17:15:07.923Z,5
2018-09-25T17:19:03.196Z,0
2018-09-25T17:20:01.952Z,0
2018-09-25T17:21:00.957Z,0
2018-09-25T17:21:59.486Z,0
2018-09-25T17:22:58.202Z,0
2018-09-25T17:23:58.088Z,0
2018-09-25T17:25:00.243Z,0
2018-09-25T17:25:58.989Z,0
2018-09-25T17:26:57.881Z,0
2018-09-25T17:27:58.789Z,0
2018-09-25T17:28:57.181Z,0
2018-09-25T17:29:56.652Z,0
2018-09-25T17:30:55.484Z,0
2018-09-25T17:32:27.093Z,0
2018-09-25T17:33:26.409Z,0
2018-09-25T17:34:25.140Z,0
2018-09-25T17:35:24.064Z,0
2018-09-25T17:36:22.696Z,0
2018-09-25T17:37:27.545Z,0
2018-09-25T17:38:35.220Z,0
2018-09-25T17:39:32.922Z,0
2018-09-25T17:40:32.164Z,0
2018-09-25T17:41:30.990Z,0
2018-09-25T17:42:30.911Z,0
2018-09-25T17:43:33.166Z,0
2018-09-25T17:44:35.070Z,0
2018-09-25T17:45:34.121Z,0
2018-09-25T17:46:32.787Z,0
2018-09-25T17:47:33.033Z,0
2018-09-25T17:48:33.171Z,0
2018-09-25T17:49:32.258Z,0
2018-09-25T17:50:36.909Z,0
2018-09-25T17:51:40.825Z,0
2018-09-25T17:52:39.477Z,0
2018-09-25T17:53:38.109Z,0
2018-09-25T17:54:36.899Z,0
2018-09-25T17:55:35.813Z,0
2018-09-25T17:56:34.659Z,0
2018-09-25T17:57:33.428Z,0
2018-09-25T17:58:32.264Z,0
2018-09-25T17:59:31.212Z,0
2018-09-25T18:00:30.364Z,0
2018-09-25T18:01:28.951Z,0
2018-09-25T18:02:27.883Z,0
2018-09-25T18:03:26.835Z,0
2018-09-25T18:04:26.507Z,0
2018-09-25T18:05:25.195Z,0
2018-09-25T18:06:23.978Z,0
2018-09-25T18:07:22.896Z,0
2018-09-25T18:10:03.490Z,0
2018-09-25T18:11:02.337Z,0
2018-09-25T18:12:01.065Z,0
2018-09-25T18:12:59.971Z,0
2018-09-25T18:14:02.671Z,0
2018-09-25T18:15:01.496Z,0
2018-09-25T18:16:00.233Z,0
2018-09-25T18:16:59.503Z,0
2018-09-25T18:17:58.474Z,0
2018-09-25T18:18:58.218Z,0
2018-09-25T18:21:38.391Z,0
2018-09-25T18:22:36.902Z,0
2018-09-25T18:23:35.927Z,0
2018-09-25T18:24:34.749Z,0
2018-09-25T18:25:35.065Z,0
2018-09-25T18:26:34.668Z,0
2018-09-25T18:27:33.234Z,0
2018-09-25T18:31:12.651Z,0
2018-09-25T18:33:35.707Z,0
2018-09-25T18:34:34.614Z,0
2018-09-25T18:35:33.400Z,0
2018-09-25T18:36:32.765Z,0
2018-09-25T18:37:31.628Z,0
2018-09-25T18:38:30.529Z,0
2018-09-25T18:39:28.955Z,0
2018-09-25T18:40:27.877Z,0
2018-09-25T18:41:26.726Z,0
2018-09-25T18:42:25.482Z,0
2018-09-25T18:43:24.496Z,0
2018-09-25T18:44:23.180Z,0
2018-09-25T18:45:22.969Z,0
2018-09-25T18:46:21.836Z,0
2018-09-25T18:47:20.867Z,0
2018-09-25T18:48:19.547Z,0
2018-09-25T18:49:18.682Z,0
2018-09-25T18:50:17.615Z,0
2018-09-25T18:51:16.506Z,0
2018-09-25T18:52:15.580Z,0
2018-09-25T18:53:14.396Z,0
2018-09-25T18:54:13.019Z,0
2018-09-25T18:55:11.626Z,0
2018-09-25T18:56:10.816Z,0
2018-09-25T18:57:09.456Z,0
2018-09-25T18:58:08.455Z,0
2018-09-25T18:59:07.035Z,0
2018-09-25T19:05:27.219Z,0
2018-09-25T19:06:26.251Z,0
2018-09-25T19:07:25.008Z,0
2018-09-25T19:08:24.059Z,0
2018-09-25T19:09:22.647Z,0
2018-09-25T19:10:21.571Z,0
2018-09-25T19:11:20.468Z,0
2018-09-25T19:12:20.012Z,0
2018-09-25T19:30:50.137Z,0
2018-09-25T19:31:50.781Z,0
2018-09-25T19:32:50.790Z,0
2018-09-25T19:33:50.475Z,0
2018-09-25T19:34:52.612Z,0
2018-09-25T19:35:53.272Z,0
2018-09-25T19:36:51.154Z,0
2018-09-25T19:37:50.573Z,0
2018-09-25T19:38:50.609Z,0
2018-09-25T19:39:50.050Z,0
2018-09-25T19:40:51.014Z,0
2018-09-25T19:41:50.958Z,0
2018-09-25T19:42:49.842Z,0
